sensor_id;sensor_type;location;lat;lon;timestamp;P1;durP1;ratioP1;P2;durP2;ratioP2
7359;SDS011;3720;48.274;7.796;2022-08-21T00:00:21;4.47;;;1.92;;
7359;SDS011;3720;48.274;7.796;2022-08-21T00:02:56;4.60;;;2.05;;
7359;SDS011;3720;48.274;7.796;2022-08-21T00:05:33;6.15;;;2.05;;
7359;SDS011;3720;48.274;7.796;2022-08-21T00:08:10;4.72;;;1.88;;
7359;SDS011;3720;48.274;7.796;2022-08-21T00:10:43;3.85;;;1.70;;
7359;SDS011;3720;48.274;7.796;2022-08-21T00:13:16;3.95;;;1.52;;
7359;SDS011;3720;48.274;7.796;2022-08-21T00:15:49;4.90;;;1.77;;
7359;SDS011;3720;48.274;7.796;2022-08-21T00:18:21;2.33;;;1.58;;
7359;SDS011;3720;48.274;7.796;2022-08-21T00:20:55;5.47;;;1.60;;
7359;SDS011;3720;48.274;7.796;2022-08-21T00:23:27;5.43;;;1.70;;
7359;SDS011;3720;48.274;7.796;2022-08-21T00:26:00;5.47;;;1.50;;
7359;SDS011;3720;48.274;7.796;2022-08-21T00:28:32;5.57;;;1.70;;
7359;SDS011;3720;48.274;7.796;2022-08-21T00:31:04;2.60;;;1.60;;
7359;SDS011;3720;48.274;7.796;2022-08-21T00:33:36;4.13;;;1.83;;
7359;SDS011;3720;48.274;7.796;2022-08-21T00:36:10;5.72;;;1.50;;
7359;SDS011;3720;48.274;7.796;2022-08-21T00:38:42;4.45;;;1.65;;
7359;SDS011;3720;48.274;7.796;2022-08-21T00:41:15;4.53;;;1.65;;
7359;SDS011;3720;48.274;7.796;2022-08-21T00:43:46;4.45;;;1.60;;
7359;SDS011;3720;48.274;7.796;2022-08-21T00:46:18;4.70;;;1.70;;
7359;SDS011;3720;48.274;7.796;2022-08-21T00:48:51;4.18;;;1.80;;
7359;SDS011;3720;48.274;7.796;2022-08-21T00:51:25;4.43;;;1.83;;
7359;SDS011;3720;48.274;7.796;2022-08-21T00:54:04;6.63;;;1.60;;
7359;SDS011;3720;48.274;7.796;2022-08-21T00:56:37;3.00;;;1.40;;
7359;SDS011;3720;48.274;7.796;2022-08-21T00:59:10;6.32;;;1.75;;
7359;SDS011;3720;48.274;7.796;2022-08-21T01:01:42;4.10;;;1.40;;
7359;SDS011;3720;48.274;7.796;2022-08-21T01:04:15;5.47;;;1.50;;
7359;SDS011;3720;48.274;7.796;2022-08-21T01:06:49;2.90;;;1.50;;
7359;SDS011;3720;48.274;7.796;2022-08-21T01:09:21;2.70;;;1.67;;
7359;SDS011;3720;48.274;7.796;2022-08-21T01:11:53;5.22;;;1.70;;
7359;SDS011;3720;48.274;7.796;2022-08-21T01:14:26;3.50;;;1.30;;
7359;SDS011;3720;48.274;7.796;2022-08-21T01:16:59;3.13;;;1.65;;
7359;SDS011;3720;48.274;7.796;2022-08-21T01:19:33;2.88;;;1.35;;
7359;SDS011;3720;48.274;7.796;2022-08-21T01:22:07;5.43;;;1.90;;
7359;SDS011;3720;48.274;7.796;2022-08-21T01:24:39;4.30;;;1.77;;
7359;SDS011;3720;48.274;7.796;2022-08-21T01:27:12;5.40;;;1.60;;
7359;SDS011;3720;48.274;7.796;2022-08-21T01:29:44;6.82;;;1.83;;
7359;SDS011;3720;48.274;7.796;2022-08-21T01:32:22;4.78;;;1.60;;
7359;SDS011;3720;48.274;7.796;2022-08-21T01:34:55;7.50;;;1.80;;
7359;SDS011;3720;48.274;7.796;2022-08-21T01:37:29;5.43;;;1.60;;
7359;SDS011;3720;48.274;7.796;2022-08-21T01:40:02;2.28;;;1.50;;
7359;SDS011;3720;48.274;7.796;2022-08-21T01:42:35;5.28;;;1.60;;
7359;SDS011;3720;48.274;7.796;2022-08-21T01:45:08;5.30;;;1.80;;
7359;SDS011;3720;48.274;7.796;2022-08-21T01:47:41;7.13;;;1.80;;
7359;SDS011;3720;48.274;7.796;2022-08-21T01:50:15;3.10;;;1.67;;
7359;SDS011;3720;48.274;7.796;2022-08-21T01:52:50;4.10;;;1.90;;
7359;SDS011;3720;48.274;7.796;2022-08-21T01:55:23;3.55;;;1.75;;
7359;SDS011;3720;48.274;7.796;2022-08-21T01:57:55;5.25;;;1.70;;
7359;SDS011;3720;48.274;7.796;2022-08-21T02:00:29;4.15;;;1.63;;
7359;SDS011;3720;48.274;7.796;2022-08-21T02:03:02;5.20;;;1.95;;
7359;SDS011;3720;48.274;7.796;2022-08-21T02:05:34;4.50;;;1.50;;
7359;SDS011;3720;48.274;7.796;2022-08-21T02:08:07;3.95;;;1.77;;
7359;SDS011;3720;48.274;7.796;2022-08-21T02:10:40;4.18;;;1.77;;
7359;SDS011;3720;48.274;7.796;2022-08-21T02:13:12;8.70;;;1.80;;
7359;SDS011;3720;48.274;7.796;2022-08-21T02:15:44;4.85;;;1.60;;
7359;SDS011;3720;48.274;7.796;2022-08-21T02:18:16;5.10;;;2.00;;
7359;SDS011;3720;48.274;7.796;2022-08-21T02:20:49;3.70;;;1.55;;
7359;SDS011;3720;48.274;7.796;2022-08-21T02:23:23;3.67;;;1.70;;
7359;SDS011;3720;48.274;7.796;2022-08-21T02:25:56;4.75;;;1.73;;
7359;SDS011;3720;48.274;7.796;2022-08-21T02:28:29;4.03;;;1.67;;
7359;SDS011;3720;48.274;7.796;2022-08-21T02:31:01;4.90;;;1.80;;
7359;SDS011;3720;48.274;7.796;2022-08-21T02:33:34;5.38;;;2.00;;
7359;SDS011;3720;48.274;7.796;2022-08-21T02:36:07;5.38;;;1.92;;
7359;SDS011;3720;48.274;7.796;2022-08-21T02:38:41;6.55;;;1.98;;
7359;SDS011;3720;48.274;7.796;2022-08-21T02:41:15;6.60;;;1.70;;
7359;SDS011;3720;48.274;7.796;2022-08-21T02:43:49;6.03;;;1.98;;
7359;SDS011;3720;48.274;7.796;2022-08-21T02:46:21;3.72;;;1.80;;
7359;SDS011;3720;48.274;7.796;2022-08-21T02:48:53;3.80;;;1.70;;
7359;SDS011;3720;48.274;7.796;2022-08-21T02:51:25;2.95;;;1.77;;
7359;SDS011;3720;48.274;7.796;2022-08-21T02:53:58;3.75;;;1.70;;
7359;SDS011;3720;48.274;7.796;2022-08-21T02:56:30;6.47;;;1.90;;
7359;SDS011;3720;48.274;7.796;2022-08-21T02:59:02;7.82;;;2.38;;
7359;SDS011;3720;48.274;7.796;2022-08-21T03:01:35;5.50;;;1.80;;
7359;SDS011;3720;48.274;7.796;2022-08-21T03:04:07;6.28;;;1.80;;
7359;SDS011;3720;48.274;7.796;2022-08-21T03:06:39;5.65;;;2.00;;
7359;SDS011;3720;48.274;7.796;2022-08-21T03:09:12;2.35;;;1.60;;
7359;SDS011;3720;48.274;7.796;2022-08-21T03:11:44;4.43;;;1.92;;
7359;SDS011;3720;48.274;7.796;2022-08-21T03:14:16;3.53;;;1.88;;
7359;SDS011;3720;48.274;7.796;2022-08-21T03:16:49;7.88;;;2.03;;
7359;SDS011;3720;48.274;7.796;2022-08-21T03:19:21;6.35;;;1.80;;
7359;SDS011;3720;48.274;7.796;2022-08-21T03:21:53;4.38;;;1.90;;
7359;SDS011;3720;48.274;7.796;2022-08-21T03:24:27;5.22;;;1.90;;
7359;SDS011;3720;48.274;7.796;2022-08-21T03:26:59;4.72;;;1.60;;
7359;SDS011;3720;48.274;7.796;2022-08-21T03:29:31;5.88;;;2.03;;
7359;SDS011;3720;48.274;7.796;2022-08-21T03:32:03;5.78;;;1.88;;
7359;SDS011;3720;48.274;7.796;2022-08-21T03:34:38;8.45;;;1.95;;
7359;SDS011;3720;48.274;7.796;2022-08-21T03:37:10;9.25;;;1.90;;
7359;SDS011;3720;48.274;7.796;2022-08-21T03:39:44;7.65;;;1.80;;
7359;SDS011;3720;48.274;7.796;2022-08-21T03:42:16;7.30;;;2.13;;
7359;SDS011;3720;48.274;7.796;2022-08-21T03:44:48;8.68;;;2.15;;
7359;SDS011;3720;48.274;7.796;2022-08-21T03:47:20;4.78;;;1.67;;
7359;SDS011;3720;48.274;7.796;2022-08-21T03:49:53;5.50;;;2.08;;
7359;SDS011;3720;48.274;7.796;2022-08-21T03:52:25;5.25;;;1.90;;
7359;SDS011;3720;48.274;7.796;2022-08-21T03:54:58;8.93;;;2.15;;
7359;SDS011;3720;48.274;7.796;2022-08-21T03:57:30;4.65;;;2.05;;
7359;SDS011;3720;48.274;7.796;2022-08-21T04:00:03;4.65;;;1.92;;
7359;SDS011;3720;48.274;7.796;2022-08-21T04:02:38;6.55;;;2.00;;
7359;SDS011;3720;48.274;7.796;2022-08-21T04:05:10;9.50;;;2.35;;
7359;SDS011;3720;48.274;7.796;2022-08-21T04:07:43;7.72;;;2.20;;
7359;SDS011;3720;48.274;7.796;2022-08-21T04:10:17;6.53;;;2.10;;
7359;SDS011;3720;48.274;7.796;2022-08-21T04:12:49;6.95;;;2.50;;
7359;SDS011;3720;48.274;7.796;2022-08-21T04:15:22;5.00;;;1.88;;
7359;SDS011;3720;48.274;7.796;2022-08-21T04:17:55;8.55;;;2.20;;
7359;SDS011;3720;48.274;7.796;2022-08-21T04:20:27;4.03;;;2.20;;
7359;SDS011;3720;48.274;7.796;2022-08-21T04:23:00;8.05;;;2.60;;
7359;SDS011;3720;48.274;7.796;2022-08-21T04:25:33;5.72;;;2.00;;
7359;SDS011;3720;48.274;7.796;2022-08-21T04:28:05;6.25;;;2.20;;
7359;SDS011;3720;48.274;7.796;2022-08-21T04:30:37;3.50;;;2.00;;
7359;SDS011;3720;48.274;7.796;2022-08-21T04:33:09;6.32;;;2.80;;
7359;SDS011;3720;48.274;7.796;2022-08-21T04:35:41;4.05;;;2.20;;
7359;SDS011;3720;48.274;7.796;2022-08-21T04:38:13;6.05;;;2.30;;
7359;SDS011;3720;48.274;7.796;2022-08-21T04:40:46;5.80;;;2.30;;
7359;SDS011;3720;48.274;7.796;2022-08-21T04:43:19;8.38;;;2.30;;
7359;SDS011;3720;48.274;7.796;2022-08-21T04:45:53;5.93;;;2.30;;
7359;SDS011;3720;48.274;7.796;2022-08-21T04:48:25;6.18;;;2.55;;
7359;SDS011;3720;48.274;7.796;2022-08-21T04:50:58;7.10;;;2.30;;
7359;SDS011;3720;48.274;7.796;2022-08-21T04:53:35;3.15;;;2.40;;
7359;SDS011;3720;48.274;7.796;2022-08-21T04:56:11;4.97;;;2.20;;
7359;SDS011;3720;48.274;7.796;2022-08-21T04:58:49;6.50;;;2.45;;
7359;SDS011;3720;48.274;7.796;2022-08-21T05:01:24;5.35;;;2.45;;
7359;SDS011;3720;48.274;7.796;2022-08-21T05:03:59;7.68;;;2.40;;
7359;SDS011;3720;48.274;7.796;2022-08-21T05:06:33;5.43;;;2.42;;
7359;SDS011;3720;48.274;7.796;2022-08-21T05:09:07;4.85;;;2.53;;
7359;SDS011;3720;48.274;7.796;2022-08-21T05:11:42;6.53;;;2.90;;
7359;SDS011;3720;48.274;7.796;2022-08-21T05:14:14;6.63;;;2.53;;
7359;SDS011;3720;48.274;7.796;2022-08-21T05:16:47;7.88;;;2.90;;
7359;SDS011;3720;48.274;7.796;2022-08-21T05:19:19;9.65;;;2.83;;
7359;SDS011;3720;48.274;7.796;2022-08-21T05:21:51;4.40;;;2.50;;
7359;SDS011;3720;48.274;7.796;2022-08-21T05:24:23;6.82;;;2.90;;
7359;SDS011;3720;48.274;7.796;2022-08-21T05:26:57;6.20;;;3.00;;
7359;SDS011;3720;48.274;7.796;2022-08-21T05:29:29;5.28;;;2.60;;
7359;SDS011;3720;48.274;7.796;2022-08-21T05:32:03;5.25;;;2.63;;
7359;SDS011;3720;48.274;7.796;2022-08-21T05:34:40;7.78;;;2.72;;
7359;SDS011;3720;48.274;7.796;2022-08-21T05:37:12;6.95;;;3.00;;
7359;SDS011;3720;48.274;7.796;2022-08-21T05:39:44;8.82;;;2.78;;
7359;SDS011;3720;48.274;7.796;2022-08-21T05:42:18;5.53;;;2.67;;
7359;SDS011;3720;48.274;7.796;2022-08-21T05:44:50;7.32;;;3.00;;
7359;SDS011;3720;48.274;7.796;2022-08-21T05:47:21;5.35;;;2.90;;
7359;SDS011;3720;48.274;7.796;2022-08-21T05:49:53;5.40;;;2.92;;
7359;SDS011;3720;48.274;7.796;2022-08-21T05:52:25;6.70;;;2.83;;
7359;SDS011;3720;48.274;7.796;2022-08-21T05:54:58;9.75;;;3.08;;
7359;SDS011;3720;48.274;7.796;2022-08-21T05:57:31;6.53;;;2.72;;
7359;SDS011;3720;48.274;7.796;2022-08-21T06:00:03;6.15;;;3.20;;
7359;SDS011;3720;48.274;7.796;2022-08-21T06:02:39;6.60;;;3.30;;
7359;SDS011;3720;48.274;7.796;2022-08-21T06:05:12;7.65;;;3.20;;
7359;SDS011;3720;48.274;7.796;2022-08-21T06:07:44;9.40;;;3.25;;
7359;SDS011;3720;48.274;7.796;2022-08-21T06:10:16;7.57;;;3.40;;
7359;SDS011;3720;48.274;7.796;2022-08-21T06:12:53;8.52;;;3.13;;
7359;SDS011;3720;48.274;7.796;2022-08-21T06:15:26;9.30;;;3.35;;
7359;SDS011;3720;48.274;7.796;2022-08-21T06:17:58;5.93;;;3.17;;
7359;SDS011;3720;48.274;7.796;2022-08-21T06:20:30;5.78;;;2.88;;
7359;SDS011;3720;48.274;7.796;2022-08-21T06:23:02;5.97;;;2.53;;
7359;SDS011;3720;48.274;7.796;2022-08-21T06:25:35;8.60;;;2.53;;
7359;SDS011;3720;48.274;7.796;2022-08-21T06:28:09;8.20;;;2.67;;
7359;SDS011;3720;48.274;7.796;2022-08-21T06:30:42;4.43;;;2.33;;
7359;SDS011;3720;48.274;7.796;2022-08-21T06:33:14;3.25;;;2.33;;
7359;SDS011;3720;48.274;7.796;2022-08-21T06:35:46;5.75;;;2.70;;
7359;SDS011;3720;48.274;7.796;2022-08-21T06:38:19;6.13;;;2.50;;
7359;SDS011;3720;48.274;7.796;2022-08-21T06:40:51;8.75;;;2.70;;
7359;SDS011;3720;48.274;7.796;2022-08-21T06:43:24;7.97;;;2.90;;
7359;SDS011;3720;48.274;7.796;2022-08-21T06:45:56;9.32;;;2.83;;
7359;SDS011;3720;48.274;7.796;2022-08-21T06:48:28;8.82;;;2.78;;
7359;SDS011;3720;48.274;7.796;2022-08-21T06:51:02;7.30;;;2.72;;
7359;SDS011;3720;48.274;7.796;2022-08-21T06:53:34;9.77;;;2.72;;
7359;SDS011;3720;48.274;7.796;2022-08-21T06:56:06;9.73;;;3.00;;
7359;SDS011;3720;48.274;7.796;2022-08-21T06:58:39;6.82;;;3.15;;
7359;SDS011;3720;48.274;7.796;2022-08-21T07:01:11;5.57;;;2.70;;
7359;SDS011;3720;48.274;7.796;2022-08-21T07:03:43;6.63;;;2.53;;
7359;SDS011;3720;48.274;7.796;2022-08-21T07:06:15;5.93;;;2.63;;
7359;SDS011;3720;48.274;7.796;2022-08-21T07:08:48;6.68;;;2.97;;
7359;SDS011;3720;48.274;7.796;2022-08-21T07:11:21;5.82;;;2.90;;
7359;SDS011;3720;48.274;7.796;2022-08-21T07:13:55;5.60;;;2.63;;
7359;SDS011;3720;48.274;7.796;2022-08-21T07:16:28;8.68;;;3.00;;
7359;SDS011;3720;48.274;7.796;2022-08-21T07:19:00;7.40;;;2.83;;
7359;SDS011;3720;48.274;7.796;2022-08-21T07:21:32;8.15;;;2.97;;
7359;SDS011;3720;48.274;7.796;2022-08-21T07:24:04;6.65;;;3.10;;
7359;SDS011;3720;48.274;7.796;2022-08-21T07:26:36;5.80;;;3.30;;
7359;SDS011;3720;48.274;7.796;2022-08-21T07:29:09;7.03;;;3.22;;
7359;SDS011;3720;48.274;7.796;2022-08-21T07:31:41;5.72;;;2.80;;
7359;SDS011;3720;48.274;7.796;2022-08-21T07:34:14;9.20;;;3.38;;
7359;SDS011;3720;48.274;7.796;2022-08-21T07:36:46;7.10;;;3.13;;
7359;SDS011;3720;48.274;7.796;2022-08-21T07:39:18;7.05;;;2.85;;
7359;SDS011;3720;48.274;7.796;2022-08-21T07:41:50;8.05;;;2.92;;
7359;SDS011;3720;48.274;7.796;2022-08-21T07:44:23;7.97;;;3.15;;
7359;SDS011;3720;48.274;7.796;2022-08-21T07:46:55;5.07;;;2.90;;
7359;SDS011;3720;48.274;7.796;2022-08-21T07:49:27;5.40;;;3.03;;
7359;SDS011;3720;48.274;7.796;2022-08-21T07:52:00;8.45;;;2.90;;
7359;SDS011;3720;48.274;7.796;2022-08-21T07:54:32;7.63;;;2.85;;
7359;SDS011;3720;48.274;7.796;2022-08-21T07:57:04;7.70;;;2.72;;
7359;SDS011;3720;48.274;7.796;2022-08-21T07:59:38;5.53;;;2.83;;
7359;SDS011;3720;48.274;7.796;2022-08-21T08:02:10;5.82;;;2.40;;
7359;SDS011;3720;48.274;7.796;2022-08-21T08:04:53;6.18;;;2.60;;
7359;SDS011;3720;48.274;7.796;2022-08-21T08:07:29;5.72;;;2.83;;
7359;SDS011;3720;48.274;7.796;2022-08-21T08:10:02;5.53;;;2.65;;
7359;SDS011;3720;48.274;7.796;2022-08-21T08:12:35;6.43;;;2.60;;
7359;SDS011;3720;48.274;7.796;2022-08-21T08:15:11;8.63;;;3.13;;
7359;SDS011;3720;48.274;7.796;2022-08-21T08:17:45;6.88;;;2.70;;
7359;SDS011;3720;48.274;7.796;2022-08-21T08:20:18;8.68;;;2.67;;
7359;SDS011;3720;48.274;7.796;2022-08-21T08:22:51;6.20;;;2.60;;
7359;SDS011;3720;48.274;7.796;2022-08-21T08:25:23;4.32;;;2.30;;
7359;SDS011;3720;48.274;7.796;2022-08-21T08:27:57;6.90;;;2.60;;
7359;SDS011;3720;48.274;7.796;2022-08-21T08:30:30;5.25;;;2.60;;
7359;SDS011;3720;48.274;7.796;2022-08-21T08:33:02;7.30;;;2.47;;
7359;SDS011;3720;48.274;7.796;2022-08-21T08:35:34;4.65;;;2.38;;
7359;SDS011;3720;48.274;7.796;2022-08-21T08:38:07;5.45;;;2.60;;
7359;SDS011;3720;48.274;7.796;2022-08-21T08:40:41;9.45;;;2.35;;
7359;SDS011;3720;48.274;7.796;2022-08-21T08:43:18;5.68;;;2.42;;
7359;SDS011;3720;48.274;7.796;2022-08-21T08:45:53;8.77;;;3.08;;
7359;SDS011;3720;48.274;7.796;2022-08-21T08:48:31;7.97;;;2.65;;
7359;SDS011;3720;48.274;7.796;2022-08-21T08:51:12;6.82;;;2.72;;
7359;SDS011;3720;48.274;7.796;2022-08-21T08:53:50;6.68;;;2.70;;
7359;SDS011;3720;48.274;7.796;2022-08-21T08:56:27;7.47;;;2.67;;
7359;SDS011;3720;48.274;7.796;2022-08-21T08:59:02;5.13;;;2.53;;
7359;SDS011;3720;48.274;7.796;2022-08-21T09:01:41;8.27;;;2.70;;
7359;SDS011;3720;48.274;7.796;2022-08-21T09:04:13;4.43;;;2.10;;
7359;SDS011;3720;48.274;7.796;2022-08-21T09:07:01;6.28;;;2.50;;
7359;SDS011;3720;48.274;7.796;2022-08-21T09:09:48;8.48;;;2.85;;
7359;SDS011;3720;48.274;7.796;2022-08-21T09:12:33;6.10;;;2.33;;
7359;SDS011;3720;48.274;7.796;2022-08-21T09:15:19;6.50;;;2.60;;
7359;SDS011;3720;48.274;7.796;2022-08-21T09:20:55;7.60;;;2.67;;
7359;SDS011;3720;48.274;7.796;2022-08-21T09:23:36;9.13;;;2.50;;
7359;SDS011;3720;48.274;7.796;2022-08-21T09:26:18;6.45;;;2.70;;
7359;SDS011;3720;48.274;7.796;2022-08-21T09:28:52;7.20;;;2.67;;
7359;SDS011;3720;48.274;7.796;2022-08-21T09:31:30;9.85;;;2.53;;
7359;SDS011;3720;48.274;7.796;2022-08-21T09:34:05;9.23;;;2.67;;
7359;SDS011;3720;48.274;7.796;2022-08-21T09:36:40;7.63;;;2.40;;
7359;SDS011;3720;48.274;7.796;2022-08-21T09:39:22;6.75;;;2.47;;
7359;SDS011;3720;48.274;7.796;2022-08-21T09:41:57;5.30;;;2.50;;
7359;SDS011;3720;48.274;7.796;2022-08-21T09:44:31;7.82;;;2.83;;
7359;SDS011;3720;48.274;7.796;2022-08-21T09:47:10;5.53;;;2.70;;
7359;SDS011;3720;48.274;7.796;2022-08-21T09:49:44;7.47;;;2.58;;
7359;SDS011;3720;48.274;7.796;2022-08-21T09:52:18;7.45;;;2.72;;
7359;SDS011;3720;48.274;7.796;2022-08-21T09:54:54;7.27;;;2.57;;
7359;SDS011;3720;48.274;7.796;2022-08-21T09:57:28;7.18;;;2.90;;
7359;SDS011;3720;48.274;7.796;2022-08-21T10:00:11;8.02;;;2.70;;
7359;SDS011;3720;48.274;7.796;2022-08-21T10:02:50;4.97;;;2.55;;
7359;SDS011;3720;48.274;7.796;2022-08-21T10:05:24;5.85;;;2.47;;
7359;SDS011;3720;48.274;7.796;2022-08-21T10:07:58;7.50;;;2.78;;
7359;SDS011;3720;48.274;7.796;2022-08-21T10:10:36;7.13;;;2.75;;
7359;SDS011;3720;48.274;7.796;2022-08-21T10:13:09;7.30;;;2.53;;
7359;SDS011;3720;48.274;7.796;2022-08-21T10:15:47;7.93;;;2.63;;
7359;SDS011;3720;48.274;7.796;2022-08-21T10:18:28;6.30;;;2.60;;
7359;SDS011;3720;48.274;7.796;2022-08-21T10:21:10;5.28;;;2.40;;
7359;SDS011;3720;48.274;7.796;2022-08-21T10:23:52;6.82;;;2.63;;
7359;SDS011;3720;48.274;7.796;2022-08-21T10:26:35;7.50;;;2.30;;
7359;SDS011;3720;48.274;7.796;2022-08-21T10:29:20;4.82;;;2.28;;
7359;SDS011;3720;48.274;7.796;2022-08-21T10:32:13;7.50;;;2.22;;
7359;SDS011;3720;48.274;7.796;2022-08-21T10:34:59;5.25;;;2.50;;
7359;SDS011;3720;48.274;7.796;2022-08-21T10:37:44;7.53;;;2.35;;
7359;SDS011;3720;48.274;7.796;2022-08-21T10:40:24;10.60;;;2.70;;
7359;SDS011;3720;48.274;7.796;2022-08-21T10:43:03;4.82;;;2.17;;
7359;SDS011;3720;48.274;7.796;2022-08-21T10:45:47;5.63;;;2.30;;
7359;SDS011;3720;48.274;7.796;2022-08-21T10:48:29;5.80;;;2.47;;
7359;SDS011;3720;48.274;7.796;2022-08-21T10:51:09;5.78;;;2.17;;
7359;SDS011;3720;48.274;7.796;2022-08-21T10:53:50;4.82;;;2.15;;
7359;SDS011;3720;48.274;7.796;2022-08-21T10:56:31;4.63;;;2.05;;
7359;SDS011;3720;48.274;7.796;2022-08-21T11:01:47;5.93;;;2.40;;
7359;SDS011;3720;48.274;7.796;2022-08-21T11:04:23;4.75;;;2.08;;
7359;SDS011;3720;48.274;7.796;2022-08-21T11:07:00;4.32;;;2.00;;
7359;SDS011;3720;48.274;7.796;2022-08-21T11:09:38;4.63;;;1.92;;
7359;SDS011;3720;48.274;7.796;2022-08-21T11:12:17;4.68;;;1.95;;
7359;SDS011;3720;48.274;7.796;2022-08-21T11:14:56;5.22;;;2.10;;
7359;SDS011;3720;48.274;7.796;2022-08-21T11:17:32;5.82;;;1.90;;
7359;SDS011;3720;48.274;7.796;2022-08-21T11:20:10;3.78;;;1.90;;
7359;SDS011;3720;48.274;7.796;2022-08-21T11:22:48;2.85;;;1.60;;
7359;SDS011;3720;48.274;7.796;2022-08-21T11:25:29;4.97;;;1.92;;
7359;SDS011;3720;48.274;7.796;2022-08-21T11:28:08;3.65;;;1.77;;
7359;SDS011;3720;48.274;7.796;2022-08-21T11:30:48;5.40;;;1.77;;
7359;SDS011;3720;48.274;7.796;2022-08-21T11:33:35;3.22;;;1.70;;
7359;SDS011;3720;48.274;7.796;2022-08-21T11:36:19;4.45;;;1.80;;
7359;SDS011;3720;48.274;7.796;2022-08-21T11:39:00;4.53;;;1.70;;
7359;SDS011;3720;48.274;7.796;2022-08-21T11:41:40;4.65;;;1.60;;
7359;SDS011;3720;48.274;7.796;2022-08-21T11:44:18;4.18;;;1.50;;
7359;SDS011;3720;48.274;7.796;2022-08-21T11:46:57;2.95;;;1.60;;
7359;SDS011;3720;48.274;7.796;2022-08-21T11:49:42;3.00;;;1.40;;
7359;SDS011;3720;48.274;7.796;2022-08-21T11:52:21;2.33;;;1.40;;
7359;SDS011;3720;48.274;7.796;2022-08-21T11:54:58;3.58;;;1.40;;
7359;SDS011;3720;48.274;7.796;2022-08-21T12:00:11;3.10;;;1.67;;
7359;SDS011;3720;48.274;7.796;2022-08-21T12:02:49;3.03;;;1.48;;
7359;SDS011;3720;48.274;7.796;2022-08-21T12:05:25;2.58;;;1.38;;
7359;SDS011;3720;48.274;7.796;2022-08-21T12:08:03;5.20;;;1.40;;
7359;SDS011;3720;48.274;7.796;2022-08-21T12:10:37;3.03;;;1.25;;
7359;SDS011;3720;48.274;7.796;2022-08-21T12:13:23;3.25;;;1.38;;
7359;SDS011;3720;48.274;7.796;2022-08-21T12:16:04;3.50;;;1.48;;
7359;SDS011;3720;48.274;7.796;2022-08-21T12:18:37;2.70;;;1.25;;
7359;SDS011;3720;48.274;7.796;2022-08-21T12:21:23;2.85;;;1.45;;
7359;SDS011;3720;48.274;7.796;2022-08-21T12:24:01;2.75;;;1.30;;
7359;SDS011;3720;48.274;7.796;2022-08-21T12:26:36;3.55;;;1.38;;
7359;SDS011;3720;48.274;7.796;2022-08-21T12:29:25;1.67;;;1.25;;
7359;SDS011;3720;48.274;7.796;2022-08-21T12:32:00;4.25;;;1.30;;
7359;SDS011;3720;48.274;7.796;2022-08-21T12:34:35;1.85;;;1.20;;
7359;SDS011;3720;48.274;7.796;2022-08-21T12:37:13;3.08;;;1.20;;
7359;SDS011;3720;48.274;7.796;2022-08-21T12:39:52;2.63;;;1.30;;
7359;SDS011;3720;48.274;7.796;2022-08-21T12:42:29;2.13;;;1.00;;
7359;SDS011;3720;48.274;7.796;2022-08-21T12:45:10;2.03;;;1.08;;
7359;SDS011;3720;48.274;7.796;2022-08-21T12:47:51;2.38;;;1.00;;
7359;SDS011;3720;48.274;7.796;2022-08-21T12:50:29;2.45;;;1.10;;
7359;SDS011;3720;48.274;7.796;2022-08-21T12:53:08;3.25;;;1.10;;
7359;SDS011;3720;48.274;7.796;2022-08-21T12:55:44;1.67;;;1.00;;
7359;SDS011;3720;48.274;7.796;2022-08-21T12:58:17;2.85;;;1.05;;
7359;SDS011;3720;48.274;7.796;2022-08-21T13:00:53;1.23;;;0.80;;
7359;SDS011;3720;48.274;7.796;2022-08-21T13:03:28;1.40;;;0.80;;
7359;SDS011;3720;48.274;7.796;2022-08-21T13:06:01;2.30;;;0.80;;
7359;SDS011;3720;48.274;7.796;2022-08-21T13:08:34;2.83;;;0.98;;
7359;SDS011;3720;48.274;7.796;2022-08-21T13:11:07;1.70;;;0.80;;
7359;SDS011;3720;48.274;7.796;2022-08-21T13:13:40;2.85;;;0.90;;
7359;SDS011;3720;48.274;7.796;2022-08-21T13:16:17;1.42;;;0.80;;
7359;SDS011;3720;48.274;7.796;2022-08-21T13:18:53;2.13;;;0.70;;
7359;SDS011;3720;48.274;7.796;2022-08-21T13:21:28;1.55;;;0.80;;
7359;SDS011;3720;48.274;7.796;2022-08-21T13:24:10;2.42;;;1.00;;
7359;SDS011;3720;48.274;7.796;2022-08-21T13:26:46;1.95;;;0.90;;
7359;SDS011;3720;48.274;7.796;2022-08-21T13:29:20;0.98;;;0.88;;
7359;SDS011;3720;48.274;7.796;2022-08-21T13:31:56;3.13;;;0.90;;
7359;SDS011;3720;48.274;7.796;2022-08-21T13:34:33;1.65;;;0.90;;
7359;SDS011;3720;48.274;7.796;2022-08-21T13:37:08;1.67;;;0.82;;
7359;SDS011;3720;48.274;7.796;2022-08-21T13:39:47;1.50;;;0.90;;
7359;SDS011;3720;48.274;7.796;2022-08-21T13:42:21;1.48;;;0.75;;
7359;SDS011;3720;48.274;7.796;2022-08-21T13:44:54;1.42;;;0.80;;
7359;SDS011;3720;48.274;7.796;2022-08-21T13:47:28;2.08;;;0.73;;
7359;SDS011;3720;48.274;7.796;2022-08-21T13:49:59;3.13;;;0.93;;
7359;SDS011;3720;48.274;7.796;2022-08-21T13:52:31;4.05;;;0.90;;
7359;SDS011;3720;48.274;7.796;2022-08-21T13:55:09;1.25;;;0.80;;
7359;SDS011;3720;48.274;7.796;2022-08-21T13:57:44;1.27;;;0.90;;
7359;SDS011;3720;48.274;7.796;2022-08-21T14:00:18;3.42;;;0.90;;
7359;SDS011;3720;48.274;7.796;2022-08-21T14:02:53;1.17;;;0.80;;
7359;SDS011;3720;48.274;7.796;2022-08-21T14:05:31;2.42;;;1.10;;
7359;SDS011;3720;48.274;7.796;2022-08-21T14:08:08;1.98;;;1.00;;
7359;SDS011;3720;48.274;7.796;2022-08-21T14:10:44;3.58;;;1.00;;
7359;SDS011;3720;48.274;7.796;2022-08-21T14:13:26;1.77;;;0.90;;
7359;SDS011;3720;48.274;7.796;2022-08-21T14:16:10;2.75;;;0.90;;
7359;SDS011;3720;48.274;7.796;2022-08-21T14:18:48;1.55;;;1.00;;
7359;SDS011;3720;48.274;7.796;2022-08-21T14:21:29;2.00;;;1.05;;
7359;SDS011;3720;48.274;7.796;2022-08-21T14:24:08;2.50;;;0.90;;
7359;SDS011;3720;48.274;7.796;2022-08-21T14:26:45;2.05;;;1.00;;
7359;SDS011;3720;48.274;7.796;2022-08-21T14:29:22;2.30;;;1.02;;
7359;SDS011;3720;48.274;7.796;2022-08-21T14:31:58;2.13;;;1.20;;
7359;SDS011;3720;48.274;7.796;2022-08-21T14:34:41;2.00;;;1.13;;
7359;SDS011;3720;48.274;7.796;2022-08-21T14:37:13;2.13;;;1.23;;
7359;SDS011;3720;48.274;7.796;2022-08-21T14:39:45;2.20;;;1.02;;
7359;SDS011;3720;48.274;7.796;2022-08-21T14:42:18;1.90;;;1.10;;
7359;SDS011;3720;48.274;7.796;2022-08-21T14:44:50;2.30;;;1.10;;
7359;SDS011;3720;48.274;7.796;2022-08-21T14:47:25;1.90;;;1.10;;
7359;SDS011;3720;48.274;7.796;2022-08-21T14:50:00;2.42;;;1.20;;
7359;SDS011;3720;48.274;7.796;2022-08-21T14:52:32;2.60;;;1.20;;
7359;SDS011;3720;48.274;7.796;2022-08-21T14:55:05;2.65;;;1.10;;
7359;SDS011;3720;48.274;7.796;2022-08-21T14:57:41;1.47;;;1.00;;
7359;SDS011;3720;48.274;7.796;2022-08-21T15:00:15;2.40;;;1.00;;
7359;SDS011;3720;48.274;7.796;2022-08-21T15:02:49;3.28;;;1.23;;
7359;SDS011;3720;48.274;7.796;2022-08-21T15:05:23;2.67;;;1.20;;
7359;SDS011;3720;48.274;7.796;2022-08-21T15:07:55;1.90;;;0.90;;
7359;SDS011;3720;48.274;7.796;2022-08-21T15:10:27;3.00;;;1.13;;
7359;SDS011;3720;48.274;7.796;2022-08-21T15:13:01;3.65;;;1.27;;
7359;SDS011;3720;48.274;7.796;2022-08-21T15:15:34;1.27;;;1.00;;
7359;SDS011;3720;48.274;7.796;2022-08-21T15:18:11;2.67;;;0.90;;
7359;SDS011;3720;48.274;7.796;2022-08-21T15:20:44;3.42;;;1.10;;
7359;SDS011;3720;48.274;7.796;2022-08-21T15:23:16;2.22;;;1.13;;
7359;SDS011;3720;48.274;7.796;2022-08-21T15:25:49;1.63;;;0.90;;
7359;SDS011;3720;48.274;7.796;2022-08-21T15:28:21;1.05;;;0.90;;
7359;SDS011;3720;48.274;7.796;2022-08-21T15:30:53;2.40;;;1.17;;
7359;SDS011;3720;48.274;7.796;2022-08-21T15:33:26;1.30;;;0.98;;
7359;SDS011;3720;48.274;7.796;2022-08-21T15:36:00;1.80;;;1.00;;
7359;SDS011;3720;48.274;7.796;2022-08-21T15:38:32;2.67;;;1.20;;
7359;SDS011;3720;48.274;7.796;2022-08-21T15:41:04;1.15;;;1.05;;
7359;SDS011;3720;48.274;7.796;2022-08-21T15:43:39;1.90;;;1.00;;
7359;SDS011;3720;48.274;7.796;2022-08-21T15:46:15;1.42;;;1.00;;
7359;SDS011;3720;48.274;7.796;2022-08-21T15:48:48;2.17;;;1.10;;
7359;SDS011;3720;48.274;7.796;2022-08-21T15:51:22;3.58;;;1.30;;
7359;SDS011;3720;48.274;7.796;2022-08-21T15:53:54;1.90;;;1.15;;
7359;SDS011;3720;48.274;7.796;2022-08-21T15:56:27;3.75;;;1.30;;
7359;SDS011;3720;48.274;7.796;2022-08-21T15:59:05;1.13;;;1.00;;
7359;SDS011;3720;48.274;7.796;2022-08-21T16:01:39;1.48;;;1.10;;
7359;SDS011;3720;48.274;7.796;2022-08-21T16:04:12;2.00;;;1.00;;
7359;SDS011;3720;48.274;7.796;2022-08-21T16:06:51;3.05;;;1.10;;
7359;SDS011;3720;48.274;7.796;2022-08-21T16:09:24;1.33;;;0.90;;